Historyczne dane pomiarowe

Dodano dane terminowe – wersja testowa.

Dane z okresu 1951-2019

Wersja bazy: 1.34 [2019-03-16, lista zmian], aktualizacja planowana na 2019-04-15

Dane meteo z obszaru Polski uzyskane na podstawie danych udostępnionych przez Instytut Meteorologii i Gospodarki Wodnej – Państwowy Instytut Badawczy.

 

Wybierz Datę:    

       

TemperaturaWilgotnośćZachmurzenieWiatrCiśnienieWidzialnośćZjawiska
 Data    tng td wb rh cc ccl cl cm ch dir g1 g2 mslp ppp      
1999-08-08 00:00:00 18.8--- 17.6 18.093wxwxwx2wx--1004.7 982.3 0.7---wx
1999-08-08 01:00:00 18.0--- 17.2 17.595wxwx2wx--1004.3 981.9----wx
1999-08-08 02:00:00 17.9--- 17.3 17.596wxwx2wx--1004.0 981.6----wx
1999-08-08 03:00:00 17.6--- 16.7 17.094wxwxwx2wx--1003.8 981.4----wx
1999-08-08 04:00:00 17.1--- 16.3 16.695wxwxwx2wx--1003.8 981.3----wx
1999-08-08 05:00:00 17.7--- 16.3 16.891wxwxwxwx1wx--1003.6 981.2----wx
1999-08-08 06:00:00 18.8--- 16.3 17.285wxwx2wx--1003.1 980.8 0.0---wx
1999-08-08 07:00:00 21.0--- 16.3 18.075wxwxwx2wx--1002.8 980.7----wx
1999-08-08 08:00:00 22.7--- 16.7 18.869wxwxwxwx2wx--1002.9 980.9----wx
1999-08-08 09:00:00 24.0--- 16.3 19.062wxwxwxwx3wx--1002.6 980.7----wx
1999-08-08 10:00:00 26.0--- 15.4 19.252wxwxwxwx4wx--1002.1 980.3----wx
1999-08-08 11:00:00 26.1--- 14.8 18.950wxwxwxwx3wx--1001.9 980.1----wx
1999-08-08 12:00:00 27.8--- 13.3 18.741wxwxwxwx3wx--1001.3 979.7 0.0---wx
1999-08-08 13:00:00 28.6--- 13.5 19.140wxwxwxwx3wx--1001.1 979.5----wx
1999-08-08 14:00:00 28.8--- 12.4 18.636wxwxwxwxwx2wx--1000.9 979.4----wx
1999-08-08 15:00:00 28.8--- 11.9 18.435wxwxwxwxwx2wx--1000.9 979.4----wx
1999-08-08 16:00:00 28.6--- 11.9 18.336wxwxwxwxwx3wx--1001.0 979.4----wx
1999-08-08 17:00:00 28.4--- 12.2 18.437wxwxwxwx1wx--1001.0 979.4----wx
1999-08-08 18:00:00 26.4--- 13.4 18.345wxwxwxwx1wx--1001.3 979.6 0.0---wx
1999-08-08 19:00:00 25.6--- 13.8 18.248wxwxwx1wx--1001.7 979.9----wx
1999-08-08 20:00:00 25.3--- 13.2 17.847wxwxwxwx2wx--1002.1 980.3----wx
1999-08-08 21:00:00 23.9--- 13.8 17.653wxwxwx2wx--1002.3 980.4----wx
1999-08-08 22:00:00 22.6--- 13.9 17.258wxwxwxwx3wx--1003.1 981.1----wx
1999-08-08 23:00:00 21.2--- 14.8 17.267wxwxwxwx2wx--1003.5 981.4----wx

 

Źródłem pochodzenia danych jest Instytut Meteorologii i Gospodarki Wodnej – Państwowy Instytut Badawczy. Dane Instytutu Meteorologii i Gospodarki Wodnej – Państwowego Instytutu Badawczego zostały przetworzone.

Dane źródłowe można odnaleźć na stronie https://dane.imgw.pl